Terminal Aerodrome Forecast
Issued by NWS Blacksburg, VA

Home | Current Version | Previous Version | Text Only | Print | Product List | Glossary On
Versions: 1 2 3 4 5 6 7 8 9 10 11 12 13 14 15 16 17 18 19 20 21 22 23 24 25 26 27 28 29 30 31
000
FTUS41 KRNK 020205 AAA
TAFBLF
TAF AMD
KBLF 020205Z 0202/0224 27004KT 6SM BR BKN004 OVC020
      TEMPO 0202/0204 SCT004 OVC011
     FM020400 27003KT 1SM BR BKN004
     FM021500 00000KT 6SM HZ OVC020
     FM021800 VRB05KT 5SM TSRA BKN025CB OVC080
     FM022200 VRB03KT P6SM -RA SCT005 OVC020=

USA.gov is the U.S. government's official web portal to all federal, state and local government web resources and services.